sensor_id;sensor_type;location;lat;lon;timestamp;pressure;altitude;pressure_sealevel;temperature;humidity
12973;BME280;6551;51.056;9.466;2023-04-28T00:02:23;97545.28;;;10.70;56.03
12973;BME280;6551;51.056;9.466;2023-04-28T00:04:49;97546.84;;;10.60;56.40
12973;BME280;6551;51.056;9.466;2023-04-28T00:07:16;97543.06;;;10.67;56.27
12973;BME280;6551;51.056;9.466;2023-04-28T00:09:41;97549.22;;;10.49;56.62
12973;BME280;6551;51.056;9.466;2023-04-28T00:12:08;97549.13;;;10.56;56.92
12973;BME280;6551;51.056;9.466;2023-04-28T00:14:34;97537.38;;;10.45;56.97
12973;BME280;6551;51.056;9.466;2023-04-28T00:17:01;97547.28;;;10.56;56.92
12973;BME280;6551;51.056;9.466;2023-04-28T00:19:29;97539.22;;;10.45;57.39
12973;BME280;6551;51.056;9.466;2023-04-28T00:21:54;97539.88;;;10.40;57.30
12973;BME280;6551;51.056;9.466;2023-04-28T00:24:20;97528.44;;;10.40;57.44
12973;BME280;6551;51.056;9.466;2023-04-28T00:26:46;97518.00;;;10.38;57.20
12973;BME280;6551;51.056;9.466;2023-04-28T00:29:12;97521.69;;;10.37;58.06
12973;BME280;6551;51.056;9.466;2023-04-28T00:31:38;97510.47;;;10.35;57.58
12973;BME280;6551;51.056;9.466;2023-04-28T00:34:04;97502.97;;;10.26;57.98
12973;BME280;6551;51.056;9.466;2023-04-28T00:36:31;97510.66;;;10.34;57.76
12973;BME280;6551;51.056;9.466;2023-04-28T00:38:58;97508.81;;;10.34;57.76
12973;BME280;6551;51.056;9.466;2023-04-28T00:41:24;97504.19;;;10.30;58.15
12973;BME280;6551;51.056;9.466;2023-04-28T00:43:50;97500.69;;;10.29;58.00
12973;BME280;6551;51.056;9.466;2023-04-28T00:46:29;97500.63;;;10.36;58.25
12973;BME280;6551;51.056;9.466;2023-04-28T00:48:59;97492.47;;;10.31;58.07
12973;BME280;6551;51.056;9.466;2023-04-28T00:51:24;97492.41;;;10.19;58.36
12973;BME280;6551;51.056;9.466;2023-04-28T00:53:53;97487.00;;;10.26;58.48
12973;BME280;6551;51.056;9.466;2023-04-28T00:56:21;97486.78;;;10.27;58.50
12973;BME280;6551;51.056;9.466;2023-04-28T00:58:48;97488.31;;;10.17;58.21
12973;BME280;6551;51.056;9.466;2023-04-28T01:01:13;97486.44;;;10.24;58.61
12973;BME280;6551;51.056;9.466;2023-04-28T01:03:40;97479.41;;;10.29;58.26
12973;BME280;6551;51.056;9.466;2023-04-28T01:06:07;97476.38;;;10.26;58.91
12973;BME280;6551;51.056;9.466;2023-04-28T01:08:36;97482.28;;;10.28;58.79
12973;BME280;6551;51.056;9.466;2023-04-28T01:11:03;97483.78;;;10.24;58.70
12973;BME280;6551;51.056;9.466;2023-04-28T01:13:30;97462.69;;;10.22;59.20
12973;BME280;6551;51.056;9.466;2023-04-28T01:15:58;97462.34;;;10.19;59.15
12973;BME280;6551;51.056;9.466;2023-04-28T01:18:25;97460.47;;;10.19;59.07
12973;BME280;6551;51.056;9.466;2023-04-28T01:20:50;97453.41;;;10.13;58.99
12973;BME280;6551;51.056;9.466;2023-04-28T01:23:17;97472.97;;;10.19;58.96
12973;BME280;6551;51.056;9.466;2023-04-28T01:25:44;97452.75;;;10.11;59.54
12973;BME280;6551;51.056;9.466;2023-04-28T01:28:10;97454.25;;;10.07;59.46
12973;BME280;6551;51.056;9.466;2023-04-28T01:30:36;97454.44;;;10.06;59.19
12973;BME280;6551;51.056;9.466;2023-04-28T01:33:02;97446.69;;;10.04;59.99
12973;BME280;6551;51.056;9.466;2023-04-28T01:35:29;97447.66;;;10.10;59.58
12973;BME280;6551;51.056;9.466;2023-04-28T01:37:55;97445.44;;;10.07;59.74
12973;BME280;6551;51.056;9.466;2023-04-28T01:40:23;97437.47;;;10.07;59.65
12973;BME280;6551;51.056;9.466;2023-04-28T01:42:48;97443.50;;;9.95;59.98
12973;BME280;6551;51.056;9.466;2023-04-28T01:45:15;97432.97;;;10.07;59.91
12973;BME280;6551;51.056;9.466;2023-04-28T01:47:42;97441.28;;;10.11;59.86
12973;BME280;6551;51.056;9.466;2023-04-28T01:50:09;97431.47;;;10.11;59.91
12973;BME280;6551;51.056;9.466;2023-04-28T01:52:35;97424.22;;;10.00;60.26
12973;BME280;6551;51.056;9.466;2023-04-28T01:55:03;97430.06;;;10.09;59.81
12973;BME280;6551;51.056;9.466;2023-04-28T01:57:30;97438.47;;;10.06;60.00
12973;BME280;6551;51.056;9.466;2023-04-28T01:59:57;97441.00;;;10.00;60.32
12973;BME280;6551;51.056;9.466;2023-04-28T02:02:25;97433.75;;;9.89;60.54
12973;BME280;6551;51.056;9.466;2023-04-28T02:04:52;97435.38;;;9.90;60.85
12973;BME280;6551;51.056;9.466;2023-04-28T02:07:18;97431.38;;;9.81;61.05
12973;BME280;6551;51.056;9.466;2023-04-28T02:09:44;97423.78;;;9.85;60.96
12973;BME280;6551;51.056;9.466;2023-04-28T02:12:10;97425.38;;;9.86;60.52
12973;BME280;6551;51.056;9.466;2023-04-28T02:14:36;97418.66;;;9.83;60.86
12973;BME280;6551;51.056;9.466;2023-04-28T02:17:03;97414.94;;;9.91;60.73
12973;BME280;6551;51.056;9.466;2023-04-28T02:19:31;97414.69;;;9.92;60.73
12973;BME280;6551;51.056;9.466;2023-04-28T02:21:57;97407.72;;;9.91;61.27
12973;BME280;6551;51.056;9.466;2023-04-28T02:24:26;97416.31;;;9.93;60.91
12973;BME280;6551;51.056;9.466;2023-04-28T02:26:51;97424.59;;;9.85;61.14
12973;BME280;6551;51.056;9.466;2023-04-28T02:29:19;97415.94;;;9.90;60.89
12973;BME280;6551;51.056;9.466;2023-04-28T02:31:44;97406.94;;;9.91;60.70
12973;BME280;6551;51.056;9.466;2023-04-28T02:34:10;97406.47;;;9.94;60.95
12973;BME280;6551;51.056;9.466;2023-04-28T02:36:36;97400.66;;;9.85;60.74
12973;BME280;6551;51.056;9.466;2023-04-28T02:39:04;97401.41;;;9.92;60.58
12973;BME280;6551;51.056;9.466;2023-04-28T02:41:31;97395.25;;;9.92;61.26
12973;BME280;6551;51.056;9.466;2023-04-28T02:43:59;97395.94;;;9.87;61.98
12973;BME280;6551;51.056;9.466;2023-04-28T02:46:25;97381.44;;;9.65;62.67
12973;BME280;6551;51.056;9.466;2023-04-28T02:48:51;97392.06;;;9.65;62.85
12973;BME280;6551;51.056;9.466;2023-04-28T02:51:16;97384.00;;;9.54;63.34
12973;BME280;6551;51.056;9.466;2023-04-28T02:53:42;97378.53;;;9.49;64.50
12973;BME280;6551;51.056;9.466;2023-04-28T02:56:08;97385.69;;;9.48;64.42
12973;BME280;6551;51.056;9.466;2023-04-28T02:58:35;97388.63;;;9.58;65.27
12973;BME280;6551;51.056;9.466;2023-04-28T03:01:03;97394.34;;;9.62;65.38
12973;BME280;6551;51.056;9.466;2023-04-28T03:03:30;97390.00;;;9.67;65.47
12973;BME280;6551;51.056;9.466;2023-04-28T03:05:57;97394.94;;;9.64;65.65
12973;BME280;6551;51.056;9.466;2023-04-28T03:08:27;97395.88;;;9.69;66.22
12973;BME280;6551;51.056;9.466;2023-04-28T03:10:54;97391.78;;;9.73;66.16
12973;BME280;6551;51.056;9.466;2023-04-28T03:13:20;97391.97;;;9.72;66.05
12973;BME280;6551;51.056;9.466;2023-04-28T03:15:46;97389.13;;;9.91;65.63
12973;BME280;6551;51.056;9.466;2023-04-28T03:18:12;97394.88;;;10.13;65.21
12973;BME280;6551;51.056;9.466;2023-04-28T03:20:38;97392.44;;;10.41;64.57
12973;BME280;6551;51.056;9.466;2023-04-28T03:23:04;97378.75;;;10.56;63.15
12973;BME280;6551;51.056;9.466;2023-04-28T03:25:31;97379.09;;;10.89;62.60
12973;BME280;6551;51.056;9.466;2023-04-28T03:27:56;97369.13;;;10.85;62.76
12973;BME280;6551;51.056;9.466;2023-04-28T03:30:25;97364.06;;;10.95;62.62
12973;BME280;6551;51.056;9.466;2023-04-28T03:32:50;97354.16;;;10.72;62.43
12973;BME280;6551;51.056;9.466;2023-04-28T03:35:16;97360.81;;;10.51;63.65
12973;BME280;6551;51.056;9.466;2023-04-28T03:37:43;97361.19;;;10.37;64.80
12973;BME280;6551;51.056;9.466;2023-04-28T03:40:10;97358.41;;;10.14;65.51
12973;BME280;6551;51.056;9.466;2023-04-28T03:42:36;97347.19;;;9.93;66.14
12973;BME280;6551;51.056;9.466;2023-04-28T03:45:03;97346.00;;;9.89;66.74
12973;BME280;6551;51.056;9.466;2023-04-28T03:47:30;97353.88;;;9.78;67.13
12973;BME280;6551;51.056;9.466;2023-04-28T03:49:55;97355.50;;;9.61;67.85
12973;BME280;6551;51.056;9.466;2023-04-28T03:52:25;97359.41;;;9.58;69.88
12973;BME280;6551;51.056;9.466;2023-04-28T03:54:51;97353.44;;;9.63;69.38
12973;BME280;6551;51.056;9.466;2023-04-28T03:57:18;97338.00;;;9.89;68.70
12973;BME280;6551;51.056;9.466;2023-04-28T03:59:44;97344.66;;;9.98;68.91
12973;BME280;6551;51.056;9.466;2023-04-28T04:02:10;97335.34;;;10.08;68.00
12973;BME280;6551;51.056;9.466;2023-04-28T04:04:35;97339.53;;;10.33;67.47
12973;BME280;6551;51.056;9.466;2023-04-28T04:07:06;97334.72;;;10.72;66.46
12973;BME280;6551;51.056;9.466;2023-04-28T04:09:31;97334.78;;;11.06;64.87
12973;BME280;6551;51.056;9.466;2023-04-28T04:11:58;97337.72;;;11.51;63.53
12973;BME280;6551;51.056;9.466;2023-04-28T04:14:25;97332.50;;;11.80;62.11
12973;BME280;6551;51.056;9.466;2023-04-28T04:16:51;97329.19;;;12.12;61.21
12973;BME280;6551;51.056;9.466;2023-04-28T04:19:18;97319.09;;;12.43;60.16
12973;BME280;6551;51.056;9.466;2023-04-28T04:21:43;97320.94;;;12.42;60.32
12973;BME280;6551;51.056;9.466;2023-04-28T04:24:09;97316.50;;;12.19;62.36
12973;BME280;6551;51.056;9.466;2023-04-28T04:26:35;97321.13;;;11.61;63.29
12973;BME280;6551;51.056;9.466;2023-04-28T04:29:01;97320.88;;;11.04;65.00
12973;BME280;6551;51.056;9.466;2023-04-28T04:31:27;97328.47;;;10.66;66.85
12973;BME280;6551;51.056;9.466;2023-04-28T04:33:54;97335.75;;;10.71;66.97
12973;BME280;6551;51.056;9.466;2023-04-28T04:36:20;97326.41;;;10.50;68.21
12973;BME280;6551;51.056;9.466;2023-04-28T04:38:45;97321.81;;;10.27;69.56
12973;BME280;6551;51.056;9.466;2023-04-28T04:41:11;97324.91;;;10.06;70.69
12973;BME280;6551;51.056;9.466;2023-04-28T04:43:36;97320.66;;;9.87;71.13
12973;BME280;6551;51.056;9.466;2023-04-28T04:46:03;97325.50;;;9.72;72.42
12973;BME280;6551;51.056;9.466;2023-04-28T04:48:31;97333.34;;;9.49;73.72
12973;BME280;6551;51.056;9.466;2023-04-28T04:50:58;97329.19;;;9.34;74.69
12973;BME280;6551;51.056;9.466;2023-04-28T04:53:24;97329.06;;;9.05;75.84
12973;BME280;6551;51.056;9.466;2023-04-28T04:55:50;97315.81;;;8.98;76.57
12973;BME280;6551;51.056;9.466;2023-04-28T04:58:17;97319.84;;;8.82;77.13
12973;BME280;6551;51.056;9.466;2023-04-28T05:00:43;97316.53;;;8.56;77.72
12973;BME280;6551;51.056;9.466;2023-04-28T05:03:09;97313.06;;;8.55;78.82
12973;BME280;6551;51.056;9.466;2023-04-28T05:05:35;97323.31;;;8.52;79.53
12973;BME280;6551;51.056;9.466;2023-04-28T05:08:01;97326.59;;;8.47;80.18
12973;BME280;6551;51.056;9.466;2023-04-28T05:10:29;97317.16;;;8.58;80.19
12973;BME280;6551;51.056;9.466;2023-04-28T05:12:55;97317.94;;;8.58;79.94
12973;BME280;6551;51.056;9.466;2023-04-28T05:15:20;97318.25;;;8.75;80.20
12973;BME280;6551;51.056;9.466;2023-04-28T05:17:46;97307.59;;;8.81;78.49
12973;BME280;6551;51.056;9.466;2023-04-28T05:20:13;97306.41;;;9.02;79.26
12973;BME280;6551;51.056;9.466;2023-04-28T05:22:39;97302.81;;;9.15;78.10
12973;BME280;6551;51.056;9.466;2023-04-28T05:25:06;97307.66;;;9.43;77.32
12973;BME280;6551;51.056;9.466;2023-04-28T05:27:31;97300.94;;;9.40;76.67
12973;BME280;6551;51.056;9.466;2023-04-28T05:29:59;97302.28;;;9.49;77.56
12973;BME280;6551;51.056;9.466;2023-04-28T05:32:25;97311.28;;;9.48;77.41
12973;BME280;6551;51.056;9.466;2023-04-28T05:34:52;97306.19;;;9.47;77.82
12973;BME280;6551;51.056;9.466;2023-04-28T05:37:18;97300.13;;;9.58;77.39
12973;BME280;6551;51.056;9.466;2023-04-28T05:39:45;97305.16;;;9.84;77.12
12973;BME280;6551;51.056;9.466;2023-04-28T05:42:10;97288.84;;;10.28;74.78
12973;BME280;6551;51.056;9.466;2023-04-28T05:44:36;97294.41;;;10.68;73.21
12973;BME280;6551;51.056;9.466;2023-04-28T05:47:02;97297.00;;;10.98;71.22
12973;BME280;6551;51.056;9.466;2023-04-28T05:49:27;97289.38;;;11.25;69.21
12973;BME280;6551;51.056;9.466;2023-04-28T05:51:54;97287.25;;;11.61;68.24
12973;BME280;6551;51.056;9.466;2023-04-28T05:54:22;97300.78;;;11.95;66.40
12973;BME280;6551;51.056;9.466;2023-04-28T05:56:49;97298.88;;;12.18;65.32
12973;BME280;6551;51.056;9.466;2023-04-28T05:59:15;97308.81;;;12.35;63.28
12973;BME280;6551;51.056;9.466;2023-04-28T06:01:41;97310.56;;;12.57;63.68
12973;BME280;6551;51.056;9.466;2023-04-28T06:04:07;97304.38;;;12.85;62.52
12973;BME280;6551;51.056;9.466;2023-04-28T06:06:32;97306.56;;;13.05;61.73
12973;BME280;6551;51.056;9.466;2023-04-28T06:09:01;97301.72;;;13.35;61.13
12973;BME280;6551;51.056;9.466;2023-04-28T06:11:27;97296.03;;;13.48;60.22
12973;BME280;6551;51.056;9.466;2023-04-28T06:13:54;97295.00;;;13.71;59.24
12973;BME280;6551;51.056;9.466;2023-04-28T06:16:21;97286.06;;;13.82;58.60
12973;BME280;6551;51.056;9.466;2023-04-28T06:18:49;97287.06;;;13.97;58.40
12973;BME280;6551;51.056;9.466;2023-04-28T06:21:16;97287.78;;;14.15;57.88
12973;BME280;6551;51.056;9.466;2023-04-28T06:23:43;97286.09;;;14.30;57.51
12973;BME280;6551;51.056;9.466;2023-04-28T06:26:09;97283.63;;;14.24;57.88
12973;BME280;6551;51.056;9.466;2023-04-28T06:28:37;97271.19;;;14.34;58.46
12973;BME280;6551;51.056;9.466;2023-04-28T06:31:04;97263.59;;;14.31;58.48
12973;BME280;6551;51.056;9.466;2023-04-28T06:33:30;97261.50;;;14.33;58.47
12973;BME280;6551;51.056;9.466;2023-04-28T06:35:56;97267.41;;;14.14;60.64
12973;BME280;6551;51.056;9.466;2023-04-28T06:38:24;97266.06;;;13.89;60.90
12973;BME280;6551;51.056;9.466;2023-04-28T06:40:51;97275.50;;;13.54;61.10
12973;BME280;6551;51.056;9.466;2023-04-28T06:43:17;97271.81;;;13.05;63.63
12973;BME280;6551;51.056;9.466;2023-04-28T06:45:44;97276.34;;;12.87;64.32
12973;BME280;6551;51.056;9.466;2023-04-28T06:48:10;97275.94;;;12.34;65.19
12973;BME280;6551;51.056;9.466;2023-04-28T06:50:36;97281.13;;;11.61;67.32
12973;BME280;6551;51.056;9.466;2023-04-28T06:53:04;97283.00;;;11.02;70.01
12973;BME280;6551;51.056;9.466;2023-04-28T06:55:31;97286.34;;;10.45;72.03
12973;BME280;6551;51.056;9.466;2023-04-28T06:57:56;97293.06;;;9.99;74.35
12973;BME280;6551;51.056;9.466;2023-04-28T07:00:22;97293.91;;;9.64;76.07
12973;BME280;6551;51.056;9.466;2023-04-28T07:02:48;97295.75;;;9.45;77.44
12973;BME280;6551;51.056;9.466;2023-04-28T07:05:15;97292.22;;;9.51;78.79
12973;BME280;6551;51.056;9.466;2023-04-28T07:07:42;97295.75;;;9.45;79.52
12973;BME280;6551;51.056;9.466;2023-04-28T07:10:09;97283.00;;;9.54;80.17
12973;BME280;6551;51.056;9.466;2023-04-28T07:12:36;97293.78;;;9.59;80.42
12973;BME280;6551;51.056;9.466;2023-04-28T07:15:04;97304.09;;;10.03;80.11
12973;BME280;6551;51.056;9.466;2023-04-28T07:17:33;97295.00;;;10.29;78.34
12973;BME280;6551;51.056;9.466;2023-04-28T07:20:00;97296.50;;;10.36;77.32
12973;BME280;6551;51.056;9.466;2023-04-28T07:22:26;97291.47;;;10.46;77.68
12973;BME280;6551;51.056;9.466;2023-04-28T07:24:52;97296.84;;;10.70;76.61
12973;BME280;6551;51.056;9.466;2023-04-28T07:27:17;97303.94;;;10.87;74.92
12973;BME280;6551;51.056;9.466;2023-04-28T07:29:43;97296.06;;;10.92;74.80
12973;BME280;6551;51.056;9.466;2023-04-28T07:32:10;97288.78;;;10.88;74.53
12973;BME280;6551;51.056;9.466;2023-04-28T07:34:36;97280.88;;;10.70;75.18
12973;BME280;6551;51.056;9.466;2023-04-28T07:37:03;97281.06;;;10.56;76.20
12973;BME280;6551;51.056;9.466;2023-04-28T07:39:33;97274.47;;;10.59;77.23
12973;BME280;6551;51.056;9.466;2023-04-28T07:42:01;97264.44;;;10.73;76.89
12973;BME280;6551;51.056;9.466;2023-04-28T07:44:28;97269.69;;;10.91;76.24
12973;BME280;6551;51.056;9.466;2023-04-28T07:46:55;97267.59;;;11.28;75.40
12973;BME280;6551;51.056;9.466;2023-04-28T07:49:22;97270.97;;;11.46;74.39
12973;BME280;6551;51.056;9.466;2023-04-28T07:51:48;97271.41;;;11.43;74.47
12973;BME280;6551;51.056;9.466;2023-04-28T07:54:14;97254.72;;;11.36;75.64
12973;BME280;6551;51.056;9.466;2023-04-28T07:56:40;97259.22;;;11.36;75.92
12973;BME280;6551;51.056;9.466;2023-04-28T07:59:05;97246.72;;;11.25;76.32
12973;BME280;6551;51.056;9.466;2023-04-28T08:01:31;97245.69;;;11.26;76.98
12973;BME280;6551;51.056;9.466;2023-04-28T08:03:56;97230.88;;;11.30;76.40
12973;BME280;6551;51.056;9.466;2023-04-28T08:06:24;97225.28;;;11.43;77.77
12973;BME280;6551;51.056;9.466;2023-04-28T08:08:51;97220.03;;;11.71;77.85
12973;BME280;6551;51.056;9.466;2023-04-28T08:11:17;97231.81;;;11.87;76.66
12973;BME280;6551;51.056;9.466;2023-04-28T08:13:43;97217.13;;;12.01;75.42
12973;BME280;6551;51.056;9.466;2023-04-28T08:16:10;97220.88;;;12.16;74.79
12973;BME280;6551;51.056;9.466;2023-04-28T08:18:35;97218.47;;;12.15;75.07
12973;BME280;6551;51.056;9.466;2023-04-28T08:21:02;97218.72;;;12.30;73.67
12973;BME280;6551;51.056;9.466;2023-04-28T08:23:27;97212.91;;;12.33;72.74
12973;BME280;6551;51.056;9.466;2023-04-28T08:25:55;97213.22;;;12.20;72.91
12973;BME280;6551;51.056;9.466;2023-04-28T08:28:21;97224.75;;;12.09;74.99
12973;BME280;6551;51.056;9.466;2023-04-28T08:30:48;97211.06;;;12.05;75.75
12973;BME280;6551;51.056;9.466;2023-04-28T08:33:14;97206.50;;;11.89;76.32
12973;BME280;6551;51.056;9.466;2023-04-28T08:35:42;97217.94;;;11.73;77.71
12973;BME280;6551;51.056;9.466;2023-04-28T08:38:07;97212.25;;;11.58;78.86
12973;BME280;6551;51.056;9.466;2023-04-28T08:40:39;97218.09;;;11.55;79.21
12973;BME280;6551;51.056;9.466;2023-04-28T08:43:05;97226.09;;;11.55;80.30
12973;BME280;6551;51.056;9.466;2023-04-28T08:45:41;97220.97;;;11.53;80.76
12973;BME280;6551;51.056;9.466;2023-04-28T08:48:20;97219.31;;;11.64;80.97
12973;BME280;6551;51.056;9.466;2023-04-28T08:50:52;97226.75;;;11.73;80.75
12973;BME280;6551;51.056;9.466;2023-04-28T08:53:25;97223.47;;;11.83;80.79
12973;BME280;6551;51.056;9.466;2023-04-28T08:55:57;97226.25;;;11.88;80.63
12973;BME280;6551;51.056;9.466;2023-04-28T08:58:26;97222.22;;;12.02;79.46
12973;BME280;6551;51.056;9.466;2023-04-28T09:00:54;97221.53;;;12.07;80.13
12973;BME280;6551;51.056;9.466;2023-04-28T09:03:21;97224.06;;;12.30;79.44
12973;BME280;6551;51.056;9.466;2023-04-28T09:05:48;97222.22;;;12.30;78.97
12973;BME280;6551;51.056;9.466;2023-04-28T09:08:14;97219.16;;;12.39;79.30
12973;BME280;6551;51.056;9.466;2023-04-28T09:10:40;97214.72;;;12.44;78.59
12973;BME280;6551;51.056;9.466;2023-04-28T09:13:06;97212.31;;;12.59;78.51
12973;BME280;6551;51.056;9.466;2023-04-28T09:15:38;97221.78;;;12.67;78.77
12973;BME280;6551;51.056;9.466;2023-04-28T09:18:06;97224.53;;;12.72;77.83
12973;BME280;6551;51.056;9.466;2023-04-28T09:20:34;97230.75;;;12.77;77.48
12973;BME280;6551;51.056;9.466;2023-04-28T09:23:20;97237.31;;;12.86;76.77
12973;BME280;6551;51.056;9.466;2023-04-28T09:25:59;97238.69;;;12.89;76.50
12973;BME280;6551;51.056;9.466;2023-04-28T09:28:25;97243.69;;;12.85;76.79
12973;BME280;6551;51.056;9.466;2023-04-28T09:30:51;97237.41;;;13.08;75.58
12973;BME280;6551;51.056;9.466;2023-04-28T09:33:17;97241.13;;;13.24;75.22
12973;BME280;6551;51.056;9.466;2023-04-28T09:35:44;97241.81;;;13.36;75.21
12973;BME280;6551;51.056;9.466;2023-04-28T09:38:11;97243.81;;;13.24;75.22
12973;BME280;6551;51.056;9.466;2023-04-28T09:40:56;97239.34;;;13.29;75.37
12973;BME280;6551;51.056;9.466;2023-04-28T09:43:31;97239.50;;;13.06;76.63
12973;BME280;6551;51.056;9.466;2023-04-28T09:46:01;97240.47;;;13.00;77.05
12973;BME280;6551;51.056;9.466;2023-04-28T09:48:38;97237.25;;;12.98;77.61
12973;BME280;6551;51.056;9.466;2023-04-28T09:51:06;97231.50;;;12.89;78.09
12973;BME280;6551;51.056;9.466;2023-04-28T09:53:33;97227.66;;;12.85;79.05
12973;BME280;6551;51.056;9.466;2023-04-28T09:56:02;97217.09;;;12.90;79.24
12973;BME280;6551;51.056;9.466;2023-04-28T09:58:30;97222.31;;;12.85;80.47
12973;BME280;6551;51.056;9.466;2023-04-28T10:01:00;97211.81;;;12.96;81.46
12973;BME280;6551;51.056;9.466;2023-04-28T10:03:28;97208.09;;;12.97;82.06
12973;BME280;6551;51.056;9.466;2023-04-28T10:05:59;97183.72;;;13.10;81.21
12973;BME280;6551;51.056;9.466;2023-04-28T10:08:26;97181.00;;;13.26;81.20
12973;BME280;6551;51.056;9.466;2023-04-28T10:10:53;97190.03;;;13.42;80.53
12973;BME280;6551;51.056;9.466;2023-04-28T10:13:21;97192.31;;;13.55;80.67
12973;BME280;6551;51.056;9.466;2023-04-28T10:15:49;97200.22;;;13.67;80.80
12973;BME280;6551;51.056;9.466;2023-04-28T10:18:16;97189.34;;;13.73;80.17
12973;BME280;6551;51.056;9.466;2023-04-28T10:20:57;97188.50;;;13.94;79.60
12973;BME280;6551;51.056;9.466;2023-04-28T10:26:18;97193.25;;;14.14;78.90
12973;BME280;6551;51.056;9.466;2023-04-28T10:28:49;97187.75;;;14.26;78.35
12973;BME280;6551;51.056;9.466;2023-04-28T10:31:18;97175.38;;;14.20;77.35
12973;BME280;6551;51.056;9.466;2023-04-28T10:33:48;97183.63;;;14.13;77.62
12973;BME280;6551;51.056;9.466;2023-04-28T10:36:49;97188.78;;;14.20;78.60
12973;BME280;6551;51.056;9.466;2023-04-28T10:39:18;97178.53;;;14.12;78.76
12973;BME280;6551;51.056;9.466;2023-04-28T10:41:46;97189.28;;;14.17;79.16
12973;BME280;6551;51.056;9.466;2023-04-28T10:47:09;97186.63;;;14.22;78.49
12973;BME280;6551;51.056;9.466;2023-04-28T10:55:34;97180.09;;;14.07;79.64
12973;BME280;6551;51.056;9.466;2023-04-28T11:00:44;97179.50;;;13.79;80.78
12973;BME280;6551;51.056;9.466;2023-04-28T11:06:22;97168.94;;;14.16;80.50
12973;BME280;6551;51.056;9.466;2023-04-28T11:08:53;97162.72;;;14.10;80.39
12973;BME280;6551;51.056;9.466;2023-04-28T11:11:23;97161.38;;;14.07;80.77
12973;BME280;6551;51.056;9.466;2023-04-28T11:13:53;97166.81;;;14.18;80.83
12973;BME280;6551;51.056;9.466;2023-04-28T11:16:22;97171.50;;;14.05;81.46
12973;BME280;6551;51.056;9.466;2023-04-28T11:19:01;97174.75;;;14.07;81.24
12973;BME280;6551;51.056;9.466;2023-04-28T11:21:31;97167.59;;;13.91;82.23
12973;BME280;6551;51.056;9.466;2023-04-28T11:23:58;97156.84;;;13.86;82.27
12973;BME280;6551;51.056;9.466;2023-04-28T11:26:24;97157.56;;;14.03;82.36
12973;BME280;6551;51.056;9.466;2023-04-28T11:28:56;97151.56;;;14.18;82.10
12973;BME280;6551;51.056;9.466;2023-04-28T11:31:25;97148.56;;;14.41;82.38
12973;BME280;6551;51.056;9.466;2023-04-28T11:34:07;97154.44;;;14.75;81.85
12973;BME280;6551;51.056;9.466;2023-04-28T11:36:38;97151.59;;;14.87;79.29
12973;BME280;6551;51.056;9.466;2023-04-28T11:39:05;97147.94;;;15.08;79.48
12973;BME280;6551;51.056;9.466;2023-04-28T11:41:43;97148.03;;;15.18;78.70
12973;BME280;6551;51.056;9.466;2023-04-28T11:44:23;97148.03;;;15.18;79.05
12973;BME280;6551;51.056;9.466;2023-04-28T11:46:54;97141.34;;;15.26;77.93
12973;BME280;6551;51.056;9.466;2023-04-28T11:49:26;97140.84;;;15.34;78.18
12973;BME280;6551;51.056;9.466;2023-04-28T11:51:56;97134.66;;;15.33;77.14
12973;BME280;6551;51.056;9.466;2023-04-28T11:54:37;97134.72;;;15.43;76.98
12973;BME280;6551;51.056;9.466;2023-04-28T11:57:04;97142.81;;;15.48;77.29
12973;BME280;6551;51.056;9.466;2023-04-28T11:59:34;97131.56;;;15.51;76.57
12973;BME280;6551;51.056;9.466;2023-04-28T12:02:06;97128.63;;;15.53;76.76
12973;BME280;6551;51.056;9.466;2023-04-28T12:04:40;97114.13;;;15.54;75.66
12973;BME280;6551;51.056;9.466;2023-04-28T12:07:13;97120.63;;;15.68;77.57
12973;BME280;6551;51.056;9.466;2023-04-28T12:09:43;97125.78;;;15.85;77.02
12973;BME280;6551;51.056;9.466;2023-04-28T12:12:12;97122.03;;;16.01;77.10
12973;BME280;6551;51.056;9.466;2023-04-28T12:15:01;97120.97;;;16.12;75.26
12973;BME280;6551;51.056;9.466;2023-04-28T12:17:36;97116.41;;;16.17;75.35
12973;BME280;6551;51.056;9.466;2023-04-28T12:20:07;97122.06;;;16.16;74.93
12973;BME280;6551;51.056;9.466;2023-04-28T12:22:49;97117.75;;;16.30;74.61
12973;BME280;6551;51.056;9.466;2023-04-28T12:25:18;97120.72;;;16.33;74.55
12973;BME280;6551;51.056;9.466;2023-04-28T12:28:05;97123.94;;;16.20;75.10
12973;BME280;6551;51.056;9.466;2023-04-28T12:30:36;97131.97;;;16.05;75.16
12973;BME280;6551;51.056;9.466;2023-04-28T12:35:49;97123.34;;;15.83;76.05
12973;BME280;6551;51.056;9.466;2023-04-28T12:38:15;97117.44;;;15.91;76.47
12973;BME280;6551;51.056;9.466;2023-04-28T12:40:42;97121.75;;;15.92;76.57
12973;BME280;6551;51.056;9.466;2023-04-28T12:43:09;97125.22;;;15.83;76.65
12973;BME280;6551;51.056;9.466;2023-04-28T12:45:36;97134.34;;;15.82;76.83
12973;BME280;6551;51.056;9.466;2023-04-28T12:48:04;97134.59;;;15.70;77.62
12973;BME280;6551;51.056;9.466;2023-04-28T12:50:31;97136.16;;;15.61;78.17
12973;BME280;6551;51.056;9.466;2023-04-28T12:52:58;97136.09;;;15.46;77.79
12973;BME280;6551;51.056;9.466;2023-04-28T12:55:25;97135.59;;;15.49;78.94
12973;BME280;6551;51.056;9.466;2023-04-28T12:57:52;97140.31;;;15.37;79.81
12973;BME280;6551;51.056;9.466;2023-04-28T13:00:17;97144.22;;;15.09;80.54
12973;BME280;6551;51.056;9.466;2023-04-28T13:02:48;97144.81;;;15.21;80.98
12973;BME280;6551;51.056;9.466;2023-04-28T13:05:15;97137.59;;;15.27;82.17
12973;BME280;6551;51.056;9.466;2023-04-28T13:07:42;97145.84;;;15.15;81.96
12973;BME280;6551;51.056;9.466;2023-04-28T13:10:10;97146.91;;;15.14;82.21
12973;BME280;6551;51.056;9.466;2023-04-28T13:12:37;97139.19;;;15.22;82.01
12973;BME280;6551;51.056;9.466;2023-04-28T13:15:04;97135.09;;;15.10;82.05
12973;BME280;6551;51.056;9.466;2023-04-28T13:17:31;97142.81;;;14.96;82.66
12973;BME280;6551;51.056;9.466;2023-04-28T13:19:58;97140.06;;;14.91;83.07
12973;BME280;6551;51.056;9.466;2023-04-28T13:22:26;97139.59;;;14.99;82.66
12973;BME280;6551;51.056;9.466;2023-04-28T13:24:53;97129.50;;;15.16;82.53
12973;BME280;6551;51.056;9.466;2023-04-28T13:27:20;97131.66;;;15.19;82.10
12973;BME280;6551;51.056;9.466;2023-04-28T13:29:46;97131.94;;;15.23;81.86
12973;BME280;6551;51.056;9.466;2023-04-28T13:32:12;97126.13;;;15.41;81.22
12973;BME280;6551;51.056;9.466;2023-04-28T13:34:38;97127.81;;;15.52;81.35
12973;BME280;6551;51.056;9.466;2023-04-28T13:37:04;97131.47;;;15.41;81.38